Time;durP1;ratioP1;P1;durP2;ratioP2;P2;SDS_P1;SDS_P2;PMS_P1;PMS_P2;Temp;Humidity;BMP_temperature;BMP_pressure;BME280_temperature;BME280_humidity;BME280_pressure;Samples;Min_cycle;Max_cycle;Signal;HPM_P1;HPM_P2
2022/11/13 00:01:45;;;;;;;10.90;8.27;;;;;;;8.27;60.26;99828.72;7000822;28;20311;-78
2022/11/13 00:05:07;;;;;;;11.70;8.53;;;;;;;8.41;58.87;99825.38;7001429;28;20320;-78
2022/11/13 00:08:29;;;;;;;11.00;7.93;;;;;;;8.40;58.61;99792.31;7001489;28;20315;-78
2022/11/13 00:11:50;;;;;;;9.17;8.10;;;;;;;8.14;58.79;99806.84;7001448;28;20346;-78
2022/11/13 00:15:12;;;;;;;12.03;8.73;;;;;;;7.97;59.35;99803.31;7000827;28;20228;-78
2022/11/13 00:18:36;;;;;;;12.93;8.90;;;;;;;7.80;59.98;99790.84;7001230;28;20320;-78
2022/11/13 00:21:58;;;;;;;14.20;9.63;;;;;;;7.70;61.08;99797.34;7001057;28;20289;-78
2022/11/13 00:25:20;;;;;;;10.67;9.20;;;;;;;7.98;60.31;99791.56;7000616;28;20233;-78
2022/11/13 00:28:42;;;;;;;13.07;8.40;;;;;;;7.98;60.74;99791.56;7001321;28;20217;-78
2022/11/13 00:32:04;;;;;;;9.40;8.37;;;;;;;7.62;60.34;99776.69;7000754;28;20805;-78
2022/11/13 00:35:26;;;;;;;10.37;7.60;;;;;;;7.40;61.40;99758.50;7000945;28;20323;-78
2022/11/13 00:38:48;;;;;;;9.30;7.50;;;;;;;7.67;60.76;99781.56;7001109;28;20321;-78
2022/11/13 00:42:10;;;;;;;9.07;7.73;;;;;;;7.48;61.14;99763.88;7001566;28;20216;-77
2022/11/13 00:45:31;;;;;;;8.13;7.30;;;;;;;7.43;61.82;99771.56;7000696;28;20314;-78
2022/11/13 00:48:52;;;;;;;8.77;7.30;;;;;;;7.40;61.58;99771.06;7000501;28;20352;-78
2022/11/13 00:52:15;;;;;;;10.47;8.00;;;;;;;7.36;61.59;99770.53;7001230;28;20339;-78
2022/11/13 00:55:37;;;;;;;9.37;6.77;;;;;;;7.58;60.40;99743.13;7000286;28;20284;-78
2022/11/13 00:58:58;;;;;;;8.17;6.70;;;;;;;7.67;60.96;99744.81;7000853;28;20320;-78
2022/11/13 01:02:20;;;;;;;10.80;7.37;;;;;;;7.97;60.12;99757.66;6973015;28;20296;-78
2022/11/13 01:05:43;;;;;;;11.53;8.60;;;;;;;8.03;59.95;99738.19;6973546;28;20286;-78
2022/11/13 01:09:06;;;;;;;9.87;8.33;;;;;;;8.30;59.53;99762.06;6973683;28;20685;-78
2022/11/13 01:12:27;;;;;;;13.13;8.30;;;;;;;8.42;59.24;99759.91;6973181;28;20746;-78
2022/11/13 01:15:49;;;;;;;17.80;9.40;;;;;;;8.17;59.72;99758.16;6973158;28;20232;-78
2022/11/13 01:19:10;;;;;;;14.43;9.23;;;;;;;8.22;60.48;99753.16;6974742;28;20368;-78
2022/11/13 01:22:32;;;;;;;28.87;10.40;;;;;;;7.86;60.42;99744.53;7000234;28;20302;-78
2022/11/13 01:25:55;;;;;;;36.37;10.80;;;;;;;7.92;60.57;99738.50;7000617;28;20323;-78
2022/11/13 01:29:16;;;;;;;45.93;11.40;;;;;;;8.22;59.97;99748.66;6999799;28;20251;-79
2022/11/13 01:32:38;;;;;;;25.47;8.60;;;;;;;8.23;59.74;99744.09;6999914;28;20268;-78
2022/11/13 01:36:00;;;;;;;23.67;9.07;;;;;;;7.83;60.48;99718.00;7000634;28;20256;-78
2022/11/13 01:39:22;;;;;;;21.40;8.80;;;;;;;7.99;60.14;99726.09;7004016;28;20318;-77
2022/11/13 01:42:45;;;;;;;35.17;10.33;;;;;;;8.03;60.43;99721.22;6999910;28;20215;-78
2022/11/13 01:46:19;;;;;;;36.03;9.93;;;;;;;7.81;60.69;99725.41;7000189;28;20276;-78
2022/11/13 01:49:41;;;;;;;69.43;12.63;;;;;;;7.77;60.25;99707.94;7000334;28;20203;-78
2022/11/13 01:53:03;;;;;;;43.33;11.37;;;;;;;7.53;61.09;99707.91;6999758;28;20275;-78
2022/11/13 01:56:25;;;;;;;13.60;10.23;;;;;;;7.69;61.91;99705.25;7000562;28;20210;-78
2022/11/13 01:59:50;;;;;;;24.57;10.67;;;;;;;7.78;61.29;99687.31;7000343;28;20291;-78
2022/11/13 02:03:12;;;;;;;23.50;9.87;;;;;;;8.00;61.27;99698.22;6999600;28;20315;-78
2022/11/13 02:06:38;;;;;;;21.33;10.67;;;;;;;8.00;61.18;99673.22;7000301;28;20310;-78
2022/11/13 02:10:00;;;;;;;39.57;9.77;;;;;;;8.23;60.24;99685.84;7000322;28;20257;-78
2022/11/13 02:13:22;;;;;;;22.40;9.50;;;;;;;8.13;60.61;99676.25;6999614;28;20316;-78
2022/11/13 02:16:47;;;;;;;20.63;9.50;;;;;;;8.35;60.05;99681.81;7000157;28;20286;-78
2022/11/13 02:20:09;;;;;;;16.03;8.57;;;;;;;7.81;60.14;99652.06;7000498;28;20370;-78
2022/11/13 02:23:37;;;;;;;16.07;7.70;;;;;;;8.07;59.72;99667.00;7000602;28;20312;-78
2022/11/13 02:27:04;;;;;;;10.30;8.23;;;;;;;8.11;59.57;99672.88;7005301;28;20298;-78
2022/11/13 02:30:27;;;;;;;25.53;8.80;;;;;;;7.98;60.23;99675.25;7003949;28;20208;-77
2022/11/13 02:33:48;;;;;;;19.53;8.30;;;;;;;7.96;60.01;99667.34;7004573;28;20925;-78
2022/11/13 02:37:10;;;;;;;19.83;9.87;;;;;;;8.03;59.98;99662.16;7004963;28;20205;-79
2022/11/13 02:40:32;;;;;;;22.83;9.77;;;;;;;7.82;60.46;99637.63;7004316;28;20380;-78
2022/11/13 02:43:55;;;;;;;26.63;9.30;;;;;;;8.01;61.18;99662.31;7004351;28;20360;-78
2022/11/13 02:47:16;;;;;;;32.53;9.23;;;;;;;7.80;61.11;99670.03;7003644;28;20339;-78
2022/11/13 02:50:38;;;;;;;119.80;13.67;;;;;;;7.47;62.51;99662.94;7004205;28;20266;-78
2022/11/13 02:54:00;;;;;;;134.17;13.73;;;;;;;7.57;62.61;99654.72;7003030;28;20633;-78
2022/11/13 02:57:21;;;;;;;79.10;13.13;;;;;;;7.53;63.49;99669.47;7003933;28;20292;-78
2022/11/13 03:00:44;;;;;;;32.90;10.17;;;;;;;7.12;64.17;99654.28;7003369;28;20222;-78
2022/11/13 03:04:06;;;;;;;42.20;12.20;;;;;;;7.09;64.63;99647.44;7002852;28;20291;-78
2022/11/13 03:07:27;;;;;;;21.97;10.47;;;;;;;7.79;62.89;99644.19;7004407;28;20643;-78
2022/11/13 03:10:48;;;;;;;47.90;11.90;;;;;;;7.97;62.37;99647.56;7003487;28;20212;-78
2022/11/13 03:14:10;;;;;;;24.10;10.27;;;;;;;8.15;61.46;99642.84;7002048;28;20284;-78
2022/11/13 03:17:33;;;;;;;38.13;10.17;;;;;;;7.99;61.47;99597.22;6975212;28;20656;-78
2022/11/13 03:20:55;;;;;;;32.73;9.50;;;;;;;7.33;62.29;99635.91;6989311;28;20233;-78
2022/11/13 03:24:16;;;;;;;46.23;10.13;;;;;;;7.75;62.10;99615.16;7002629;28;20654;-79
2022/11/13 03:27:38;;;;;;;142.83;15.20;;;;;;;7.58;63.04;99634.94;7004666;28;20245;-77
2022/11/13 03:31:00;;;;;;;37.70;10.77;;;;;;;7.84;62.48;99641.84;7001111;28;20294;-78
2022/11/13 03:34:23;;;;;;;59.40;10.30;;;;;;;7.81;62.71;99614.50;7001620;28;20363;-78
2022/11/13 03:37:44;;;;;;;82.50;10.00;;;;;;;7.32;62.26;99608.22;7002290;28;20212;-78
2022/11/13 03:41:05;;;;;;;28.80;9.73;;;;;;;7.57;62.40;99644.84;7002168;28;20229;-78
2022/11/13 03:44:27;;;;;;;33.80;10.67;;;;;;;7.77;62.08;99615.84;7001198;28;20256;-79
2022/11/13 03:47:49;;;;;;;80.03;20.43;;;;;;;7.74;61.99;99603.59;7002851;28;20665;-78
2022/11/13 03:51:11;;;;;;;71.13;12.10;;;;;;;7.47;61.88;99637.94;7002988;28;20615;-78
2022/11/13 03:54:33;;;;;;;49.67;10.33;;;;;;;7.77;62.28;99645.38;7002647;28;20709;-78
2022/11/13 03:57:54;;;;;;;34.70;9.27;;;;;;;7.72;61.92;99612.81;7002514;28;20690;-78
2022/11/13 04:01:16;;;;;;;19.87;8.07;;;;;;;8.03;61.40;99629.94;7002625;28;20227;-78
2022/11/13 04:04:38;;;;;;;18.50;8.47;;;;;;;7.76;61.43;99604.25;7002427;28;20251;-78
2022/11/13 04:08:02;;;;;;;22.87;8.67;;;;;;;7.54;61.97;99579.94;7002583;28;20206;-78
2022/11/13 04:11:24;;;;;;;28.20;9.77;;;;;;;7.81;61.71;99599.22;7002740;28;20232;-78
2022/11/13 04:14:45;;;;;;;13.03;8.23;;;;;;;7.94;61.48;99630.94;7001941;28;20257;-77
2022/11/13 04:18:07;;;;;;;17.87;7.77;;;;;;;8.08;60.40;99620.34;7002991;28;20272;-78
2022/11/13 04:21:29;;;;;;;15.40;7.90;;;;;;;7.89;60.44;99579.59;7002092;28;20266;-79
2022/11/13 04:24:53;;;;;;;16.90;8.57;;;;;;;7.69;60.37;99554.94;7002030;28;20231;-78
2022/11/13 04:28:14;;;;;;;99.60;10.17;;;;;;;7.78;60.62;99604.09;7001761;28;20211;-78
2022/11/13 04:31:36;;;;;;;26.17;8.07;;;;;;;7.87;60.38;99595.88;7000995;28;20200;-78
2022/11/13 04:34:57;;;;;;;23.90;7.73;;;;;;;7.91;60.62;99602.56;7001318;28;20266;-78
2022/11/13 04:38:19;;;;;;;104.63;12.23;;;;;;;7.51;60.62;99599.91;7001560;28;20278;-78
2022/11/13 04:45:22;;;;;;;16.13;9.13;;;;;;;8.04;60.44;99591.31;7001461;28;20223;-78
2022/11/13 04:48:44;;;;;;;48.83;8.50;;;;;;;7.91;60.42;99583.78;7001293;28;20294;-78
2022/11/13 04:52:05;;;;;;;25.83;9.33;;;;;;;7.91;60.92;99577.59;7001879;28;20353;-79
2022/11/13 04:55:27;;;;;;;28.80;9.03;;;;;;;8.03;60.31;99587.81;7001435;28;20699;-78
2022/11/13 04:58:50;;;;;;;22.60;8.23;;;;;;;8.02;61.07;99583.41;7000882;28;20481;-78
2022/11/13 05:02:11;;;;;;;35.17;8.83;;;;;;;8.06;61.14;99582.09;7000775;28;20306;-78
2022/11/13 05:05:33;;;;;;;209.53;16.90;;;;;;;7.57;60.86;99587.66;6999581;28;20291;-78
2022/11/13 05:08:54;;;;;;;128.53;13.77;;;;;;;7.57;62.08;99577.75;7000008;28;20234;-79
2022/11/13 05:12:16;;;;;;;98.90;12.40;;;;;;;6.92;63.22;99559.91;7000526;28;20227;-77
2022/11/13 05:15:39;;;;;;;36.43;9.93;;;;;;;7.64;62.68;99565.34;6999443;28;20360;-77
2022/11/13 05:19:00;;;;;;;41.63;10.47;;;;;;;7.68;62.51;99553.28;6999985;28;20620;-77
2022/11/13 05:22:22;;;;;;;43.90;9.53;;;;;;;8.09;61.22;99554.06;6999996;28;20292;-77
2022/11/13 05:25:43;;;;;;;47.77;9.07;;;;;;;8.01;61.14;99557.59;6999511;28;20753;-76
2022/11/13 05:29:05;;;;;;;24.10;9.23;;;;;;;7.85;61.43;99554.91;7000005;28;20356;-77
2022/11/13 05:32:28;;;;;;;52.30;10.53;;;;;;;7.94;61.63;99553.06;6991721;28;20350;-77
2022/11/13 05:35:49;;;;;;;42.97;9.77;;;;;;;8.02;60.73;99543.16;7000485;28;20232;-79
2022/11/13 05:39:11;;;;;;;185.10;18.03;;;;;;;6.85;62.52;99547.31;7000593;28;20313;-79
2022/11/13 05:42:32;;;;;;;245.00;19.07;;;;;;;6.33;65.47;99535.06;7000422;28;20301;-77
2022/11/13 05:45:59;;;;;;;117.27;16.27;;;;;;;7.11;64.70;99530.09;6999480;28;20375;-76
2022/11/13 05:49:22;;;;;;;59.23;11.93;;;;;;;7.07;64.46;99544.84;6999813;28;20252;-77
2022/11/13 05:52:44;;;;;;;171.60;20.17;;;;;;;6.80;64.29;99538.91;6999002;28;20289;-77
2022/11/13 05:56:08;;;;;;;85.80;14.23;;;;;;;6.78;65.55;99533.72;6998956;28;20358;-77
2022/11/13 05:59:29;;;;;;;74.70;12.90;;;;;;;6.62;65.29;99535.53;7002122;28;20764;-77
2022/11/13 06:02:51;;;;;;;71.63;13.90;;;;;;;6.99;64.67;99546.66;7003589;28;20652;-77
2022/11/13 06:06:17;;;;;;;69.20;15.63;;;;;;;6.63;64.88;99503.22;7004319;28;20211;-77
2022/11/13 06:09:39;;;;;;;121.73;17.03;;;;;;;6.98;65.00;99564.63;7005708;28;20539;-77
2022/11/13 06:13:01;;;;;;;112.97;18.70;;;;;;;6.99;64.78;99536.78;7005242;28;20229;-77
2022/11/13 06:16:26;;;;;;;16.83;12.63;;;;;;;7.54;63.91;99521.75;7007248;28;20207;-76
2022/11/13 06:19:48;;;;;;;88.23;16.70;;;;;;;7.57;63.80;99550.09;7006425;28;20774;-77
2022/11/13 06:23:10;;;;;;;142.00;19.63;;;;;;;7.30;64.67;99553.09;7006496;28;20205;-77
2022/11/13 06:26:33;;;;;;;33.43;14.67;;;;;;;7.76;63.48;99529.09;7007985;28;20202;-77
2022/11/13 06:29:55;;;;;;;73.97;14.83;;;;;;;7.70;63.23;99504.78;7005949;28;20298;-77
2022/11/13 06:33:16;;;;;;;68.53;14.37;;;;;;;8.11;62.45;99531.38;7006306;28;20295;-77
2022/11/13 06:36:38;;;;;;;70.30;15.60;;;;;;;7.55;62.84;99474.28;7009054;28;20295;-80
2022/11/13 06:40:01;;;;;;;83.93;14.47;;;;;;;7.79;63.17;99518.00;7005380;28;20228;-79
2022/11/13 06:43:23;;;;;;;86.53;16.33;;;;;;;7.92;63.63;99537.16;7003902;28;20242;-78
2022/11/13 06:46:44;;;;;;;188.27;20.30;;;;;;;7.77;62.77;99508.47;7004978;28;20236;-78
2022/11/13 06:50:07;;;;;;;68.53;12.97;;;;;;;7.80;62.61;99519.72;7004791;28;20279;-78
2022/11/13 06:53:29;;;;;;;224.47;24.50;;;;;;;6.89;63.92;99519.19;7005036;28;20280;-78
2022/11/13 06:56:52;;;;;;;36.43;11.63;;;;;;;7.74;63.12;99528.44;7000415;28;20273;-78
2022/11/13 07:00:14;;;;;;;59.57;13.20;;;;;;;7.85;63.19;99503.91;7004219;28;20231;-78
2022/11/13 07:03:36;;;;;;;56.47;13.57;;;;;;;7.98;63.12;99516.81;7005368;28;20310;-78
2022/11/13 07:06:58;;;;;;;45.70;12.00;;;;;;;8.05;62.57;99518.66;7005569;28;20286;-78
2022/11/13 07:10:19;;;;;;;55.63;12.63;;;;;;;8.09;62.31;99517.31;7004663;28;20599;-78
2022/11/13 07:13:42;;;;;;;64.87;12.40;;;;;;;7.76;62.03;99480.78;7003459;28;20796;-78
2022/11/13 07:17:04;;;;;;;40.20;11.30;;;;;;;8.02;62.31;99499.34;7005814;28;20674;-78
2022/11/13 07:20:25;;;;;;;42.57;9.30;;;;;;;8.03;61.48;99507.25;7004708;28;20320;-82
2022/11/13 07:23:47;;;;;;;44.40;9.47;;;;;;;7.65;61.64;99462.34;7012262;28;20222;-77
2022/11/13 07:27:09;;;;;;;27.77;8.60;;;;;;;7.80;61.65;99492.88;7005555;28;20242;-78
2022/11/13 07:30:32;;;;;;;20.27;8.10;;;;;;;7.75;61.26;99456.78;7014469;28;20235;-82
2022/11/13 07:37:38;;;;;;;14.10;7.93;;;;;;;8.14;60.58;99477.31;7009297;28;20212;-85
2022/11/13 07:41:15;;;;;;;18.00;8.33;;;;;;;8.09;60.58;99474.34;7014065;28;20246;-81
2022/11/13 07:44:50;;;;;;;13.60;6.97;;;;;;;8.10;60.37;99477.84;7000486;28;20597;-82
2022/11/13 07:48:16;;;;;;;27.47;8.00;;;;;;;8.30;60.08;99488.03;7015009;28;20235;-82
2022/11/13 07:51:38;;;;;;;67.47;9.80;;;;;;;7.80;59.50;99466.03;7014523;28;20197;-81
2022/11/13 07:55:00;;;;;;;12.47;8.03;;;;;;;8.30;59.61;99474.59;7010089;28;20236;-78
2022/11/13 07:58:21;;;;;;;24.10;8.47;;;;;;;8.24;59.95;99486.03;7003640;28;20364;-78
2022/11/13 08:01:43;;;;;;;58.30;9.67;;;;;;;8.30;60.06;99450.44;7004906;28;20752;-77
2022/11/13 08:05:06;;;;;;;20.40;8.23;;;;;;;8.25;59.83;99457.34;7003130;28;20347;-77
2022/11/13 08:08:28;;;;;;;26.43;9.30;;;;;;;8.13;60.34;99440.72;7004226;28;20260;-78
2022/11/13 08:11:49;;;;;;;54.63;10.67;;;;;;;7.92;60.35;99443.19;6993571;28;20291;-77
2022/11/13 08:15:11;;;;;;;79.47;11.33;;;;;;;7.74;60.63;99420.25;6978775;28;20743;-77
2022/11/13 08:18:33;;;;;;;17.20;9.23;;;;;;;8.00;61.05;99432.41;7002428;28;20216;-77
2022/11/13 08:21:56;;;;;;;39.67;10.87;;;;;;;7.99;61.32;99411.94;7002322;28;20269;-77
2022/11/13 08:25:18;;;;;;;47.53;10.70;;;;;;;8.46;60.59;99436.06;7003339;28;20776;-76
2022/11/13 08:28:40;;;;;;;29.03;10.73;;;;;;;8.28;60.52;99424.75;7002054;28;20303;-77
2022/11/13 08:32:01;;;;;;;42.50;10.37;;;;;;;8.12;60.34;99385.34;7003495;28;20222;-77
2022/11/13 08:35:23;;;;;;;21.27;9.93;;;;;;;8.33;60.96;99388.31;7002710;28;20711;-78
2022/11/13 08:38:47;;;;;;;13.73;8.60;;;;;;;8.72;59.18;99417.78;7002443;28;20246;-77
2022/11/13 08:42:09;;;;;;;32.10;10.63;;;;;;;8.61;57.62;99396.69;7002966;28;20313;-78
2022/11/13 08:45:31;;;;;;;34.57;9.67;;;;;;;8.12;58.99;99395.25;7001725;28;20318;-78
2022/11/13 08:48:52;;;;;;;22.13;10.53;;;;;;;7.91;61.03;99400.38;7002229;28;20288;-78
2022/11/13 08:52:14;;;;;;;35.60;11.63;;;;;;;7.76;61.42;99421.75;7002769;28;20226;-78
2022/11/13 08:55:37;;;;;;;20.47;10.97;;;;;;;7.65;62.99;99407.84;7002306;28;20742;-78
2022/11/13 08:58:59;;;;;;;70.60;13.50;;;;;;;7.09;63.43;99391.84;7002809;28;20262;-78
2022/11/13 09:02:20;;;;;;;41.23;11.83;;;;;;;7.51;64.75;99396.00;7001928;28;20453;-75
2022/11/13 09:05:42;;;;;;;28.67;13.20;;;;;;;7.98;64.18;99412.09;7001905;28;20278;-75
2022/11/13 09:09:04;;;;;;;24.40;13.23;;;;;;;7.90;63.85;99348.53;7002617;28;20602;-75
2022/11/13 09:12:27;;;;;;;20.53;12.20;;;;;;;7.98;63.62;99404.03;7002158;28;20285;-75
2022/11/13 09:15:49;;;;;;;48.33;14.83;;;;;;;8.43;63.33;99407.69;7001451;28;20322;-75
2022/11/13 09:19:10;;;;;;;43.00;14.17;;;;;;;8.43;62.03;99414.94;7001766;28;20416;-75
2022/11/13 09:22:32;;;;;;;37.53;13.73;;;;;;;8.36;62.84;99412.09;7001441;28;20714;-76
2022/11/13 09:25:53;;;;;;;30.30;14.70;;;;;;;8.42;63.64;99400.66;7001583;28;20319;-75
2022/11/13 09:29:17;;;;;;;16.20;12.63;;;;;;;8.95;62.13;99395.25;7001533;28;20266;-75
2022/11/13 09:32:38;;;;;;;22.83;14.43;;;;;;;8.61;62.93;99405.56;7003266;28;20219;-75
2022/11/13 09:36:00;;;;;;;17.43;12.93;;;;;;;8.59;62.74;99390.63;7006628;28;20642;-76
2022/11/13 09:39:21;;;;;;;34.73;13.83;;;;;;;8.48;63.41;99383.81;7007523;28;20446;-75
2022/11/13 09:42:44;;;;;;;24.43;13.97;;;;;;;8.62;62.92;99404.56;7007355;28;20306;-75
2022/11/13 09:46:14;;;;;;;30.97;14.20;;;;;;;8.52;63.11;99408.47;7006961;28;20288;-75
2022/11/13 09:49:38;;;;;;;22.07;14.67;;;;;;;8.60;63.47;99398.53;7007673;28;20350;-76
2022/11/13 09:53:12;;;;;;;41.43;15.00;;;;;;;9.09;63.26;99389.09;7006429;28;20255;-76
2022/11/13 09:56:35;;;;;;;33.13;16.40;;;;;;;8.95;63.76;99397.09;7006401;28;20205;-75
2022/11/13 10:00:00;;;;;;;29.40;16.10;;;;;;;9.33;62.94;99402.31;7006461;28;20233;-75
2022/11/13 10:03:31;;;;;;;18.23;15.43;;;;;;;9.45;62.88;99374.75;7005983;28;20301;-75
2022/11/13 10:07:04;;;;;;;21.90;15.67;;;;;;;9.47;62.27;99378.13;7005452;28;20290;-76
2022/11/13 10:10:40;;;;;;;20.47;15.33;;;;;;;9.08;63.39;99384.69;7006519;28;20213;-76
2022/11/13 10:14:04;;;;;;;18.43;15.77;;;;;;;9.26;62.88;99377.97;7006493;28;20831;-74
2022/11/13 10:17:31;;;;;;;16.77;14.93;;;;;;;9.28;62.11;99369.72;7005677;28;20243;-76
2022/11/13 10:20:56;;;;;;;18.47;14.67;;;;;;;9.20;62.31;99365.25;7005744;28;20244;-75
2022/11/13 10:24:22;;;;;;;17.50;13.50;;;;;;;8.95;63.04;99364.84;7005483;28;20286;-76
2022/11/13 10:27:44;;;;;;;17.83;15.43;;;;;;;9.18;62.61;99355.69;7004679;28;20292;-76
2022/11/13 10:31:06;;;;;;;14.93;13.37;;;;;;;9.51;61.82;99357.03;7004633;28;20308;-75
2022/11/13 10:34:28;;;;;;;15.03;13.43;;;;;;;9.19;61.97;99290.97;6991025;28;20595;-76
2022/11/13 10:37:58;;;;;;;16.90;13.70;;;;;;;9.61;61.69;99336.03;7005879;28;20564;-77
2022/11/13 10:41:21;;;;;;;16.87;14.77;;;;;;;10.19;60.63;99347.63;7005635;28;20246;-77
2022/11/13 10:44:53;;;;;;;16.87;14.40;;;;;;;10.09;60.53;99320.16;7004819;28;20262;-79
2022/11/13 10:48:21;;;;;;;18.37;14.10;;;;;;;10.30;60.11;99295.09;6980877;28;20290;-79
2022/11/13 10:51:43;;;;;;;17.47;14.80;;;;;;;10.88;59.45;99324.50;6995318;28;20193;-81
2022/11/13 10:55:15;;;;;;;14.10;12.60;;;;;;;10.96;58.37;99318.94;7006207;28;20325;-80
2022/11/13 10:58:37;;;;;;;15.53;12.40;;;;;;;11.02;58.10;99299.28;7006034;28;20213;-81
2022/11/13 11:02:09;;;;;;;14.83;13.20;;;;;;;11.22;58.14;99306.47;7009085;28;20237;-81
2022/11/13 11:05:30;;;;;;;15.77;14.17;;;;;;;10.95;58.02;99276.81;7007380;28;20705;-79
2022/11/13 11:08:52;;;;;;;17.00;14.23;;;;;;;11.31;57.22;99283.72;7007825;28;20225;-80
2022/11/13 11:12:22;;;;;;;17.17;14.33;;;;;;;11.13;58.50;99250.16;7007590;28;20658;-80
2022/11/13 11:15:49;;;;;;;17.23;15.07;;;;;;;11.78;57.67;99272.16;7006347;28;20225;-78
2022/11/13 11:19:12;;;;;;;15.03;13.50;;;;;;;11.66;56.76;99265.66;7005002;28;20699;-79
2022/11/13 11:22:36;;;;;;;16.93;15.17;;;;;;;10.68;57.12;99172.47;7006703;28;20230;-81
2022/11/13 11:26:00;;;;;;;15.33;13.73;;;;;;;11.25;56.37;99264.78;7006464;28;20372;-79
2022/11/13 11:29:27;;;;;;;15.13;13.63;;;;;;;11.28;56.55;99250.91;7006832;28;20205;-82
2022/11/13 11:32:54;;;;;;;16.07;14.37;;;;;;;11.55;57.20;99248.13;7006422;28;20230;-80
2022/11/13 11:36:23;;;;;;;14.73;13.20;;;;;;;11.83;55.50;99229.16;7009034;28;20224;-80
2022/11/13 11:43:37;;;;;;;15.43;13.80;;;;;;;11.93;55.01;99221.50;7009439;28;20225;-82
2022/11/13 11:47:01;;;;;;;15.07;13.43;;;;;;;11.83;55.07;99208.38;7015322;28;20248;-83
2022/11/13 11:50:31;;;;;;;15.40;13.17;;;;;;;12.49;54.54;99215.56;7000471;28;20202;-78
2022/11/13 11:53:59;;;;;;;15.97;13.87;;;;;;;12.24;54.33;99200.16;6975689;28;20368;-77
2022/11/13 11:57:35;;;;;;;15.67;13.30;;;;;;;12.21;55.59;99187.06;6987204;28;20361;-82
2022/11/13 12:01:04;;;;;;;15.30;13.67;;;;;;;12.20;54.70;99136.72;7017056;28;20232;-86
2022/11/13 12:04:47;;;;;;;14.77;13.23;;;;;;;11.55;56.33;99152.78;7018221;28;20221;-83
2022/11/13 12:08:20;;;;;;;14.77;13.20;;;;;;;10.87;57.36;99075.47;7017971;28;20265;-84
2022/11/13 12:11:44;;;;;;;14.30;12.90;;;;;;;12.15;56.20;99168.97;7012683;28;20231;-83
2022/11/13 12:15:09;;;;;;;15.47;13.93;;;;;;;11.97;55.21;99091.19;7016691;28;20234;-83
2022/11/13 12:18:46;;;;;;;15.07;13.57;;;;;;;12.34;55.96;99136.50;7007681;28;20193;-82
2022/11/13 12:22:16;;;;;;;14.13;12.60;;;;;;;13.17;53.85;99135.78;7004523;28;20297;-82
2022/11/13 12:25:42;;;;;;;14.17;12.77;;;;;;;12.56;55.27;99110.09;7004054;28;20240;-82
2022/11/13 12:29:08;;;;;;;14.50;12.37;;;;;;;13.36;53.88;99116.75;7005576;28;20229;-82
2022/11/13 12:32:39;;;;;;;14.00;12.60;;;;;;;14.03;52.02;99106.13;7004485;28;20220;-82
2022/11/13 12:36:02;;;;;;;13.13;11.83;;;;;;;13.37;52.82;99107.59;7005608;28;20610;-81
2022/11/13 12:39:34;;;;;;;13.37;11.97;;;;;;;13.89;51.91;99091.03;7004482;28;20658;-82
2022/11/13 12:43:02;;;;;;;12.97;11.67;;;;;;;14.37;51.48;99092.13;7004338;28;20295;-82
2022/11/13 12:46:32;;;;;;;13.60;12.20;;;;;;;14.32;50.42;99096.53;7004178;28;20336;-82
2022/11/13 12:50:01;;;;;;;13.73;12.30;;;;;;;14.31;51.18;99082.16;7004319;28;20298;-82
2022/11/13 12:53:25;;;;;;;13.70;11.87;;;;;;;14.13;50.70;99073.09;7003048;28;20270;-83
2022/11/13 12:56:48;;;;;;;13.33;11.63;;;;;;;14.82;49.84;99081.88;7008793;28;20238;-82
2022/11/13 13:00:23;;;;;;;13.07;10.77;;;;;;;13.99;50.97;99082.41;7014283;28;20242;-83
2022/11/13 13:03:58;;;;;;;12.00;10.77;;;;;;;13.72;51.62;99067.38;7008209;28;20688;-81
2022/11/13 13:07:31;;;;;;;11.83;10.63;;;;;;;14.13;51.84;99073.09;7002265;28;20328;-81
2022/11/13 13:11:00;;;;;;;11.80;10.60;;;;;;;14.68;49.82;99055.94;7003126;28;20661;-79
2022/11/13 13:14:49;;;;;;;13.27;11.10;;;;;;;14.95;49.65;99054.56;6999561;28;20282;-79
2022/11/13 13:18:23;;;;;;;14.97;11.83;;;;;;;15.03;49.86;99048.81;7002168;28;20268;-79
2022/11/13 13:21:46;;;;;;;13.50;12.20;;;;;;;15.25;49.29;99039.16;7002053;28;20226;-79
2022/11/13 13:25:24;;;;;;;14.60;13.20;;;;;;;14.96;49.60;99035.34;7001675;28;20246;-79
2022/11/13 13:28:49;;;;;;;14.03;11.77;;;;;;;15.39;48.49;99022.47;7001445;28;20221;-79
2022/11/13 13:32:18;;;;;;;12.70;11.50;;;;;;;15.17;48.87;99017.75;7002390;28;20789;-79
2022/11/13 13:35:44;;;;;;;13.53;11.50;;;;;;;15.25;49.05;99026.41;7000305;28;20729;-77
2022/11/13 13:39:16;;;;;;;13.00;11.70;;;;;;;15.13;49.31;99022.81;7001942;28;20282;-77
2022/11/13 13:42:50;;;;;;;13.20;11.90;;;;;;;15.26;49.50;99019.06;7001833;28;20298;-77
2022/11/13 13:46:14;;;;;;;13.20;11.90;;;;;;;15.08;49.85;99019.09;7001197;28;20339;-79
2022/11/13 13:49:37;;;;;;;13.10;11.80;;;;;;;15.01;50.13;98992.06;7001801;28;20210;-77
2022/11/13 13:52:59;;;;;;;13.77;12.37;;;;;;;15.45;49.03;99005.25;7000605;28;20288;-77
2022/11/13 13:56:22;;;;;;;13.47;12.13;;;;;;;15.47;49.56;98991.44;7001442;28;20250;-77
2022/11/13 13:59:44;;;;;;;13.97;12.37;;;;;;;15.69;49.17;98984.41;7001044;28;20263;-78
2022/11/13 14:03:17;;;;;;;12.73;11.43;;;;;;;16.20;47.75;98996.28;7000454;28;20227;-77
2022/11/13 14:06:49;;;;;;;13.73;12.33;;;;;;;15.61;49.09;98984.72;7001134;28;20248;-78
2022/11/13 14:10:15;;;;;;;13.50;12.10;;;;;;;15.64;49.88;98987.81;7000955;28;20195;-78
2022/11/13 14:13:37;;;;;;;13.10;11.80;;;;;;;15.70;49.51;98988.78;7000459;28;20313;-78
2022/11/13 14:17:02;;;;;;;14.40;12.90;;;;;;;15.62;49.04;98970.91;7001149;28;20584;-77
2022/11/13 14:20:24;;;;;;;13.40;11.43;;;;;;;15.39;49.04;98953.75;7004125;28;20202;-77
2022/11/13 14:23:48;;;;;;;14.23;12.73;;;;;;;15.41;50.18;98966.03;7005558;28;20283;-77
2022/11/13 14:27:14;;;;;;;12.13;11.03;;;;;;;15.61;49.47;98963.81;7006204;28;20279;-76
2022/11/13 14:30:35;;;;;;;13.20;11.60;;;;;;;15.52;49.70;98970.66;7006747;28;20319;-77
2022/11/13 14:33:59;;;;;;;12.10;10.90;;;;;;;15.58;49.80;98971.63;7005612;28;20260;-76
2022/11/13 14:37:24;;;;;;;11.70;9.73;;;;;;;15.51;49.32;98960.03;7006014;28;20296;-77
2022/11/13 14:40:48;;;;;;;13.00;10.57;;;;;;;15.41;50.09;98963.31;7005742;28;20260;-77
2022/11/13 14:44:10;;;;;;;11.37;9.60;;;;;;;15.24;50.31;98967.72;7005552;28;20785;-79
2022/11/13 14:47:36;;;;;;;10.90;9.67;;;;;;;14.95;51.31;98967.69;7004969;28;20290;-77
2022/11/13 14:50:59;;;;;;;9.43;8.53;;;;;;;15.15;50.45;98971.81;7005251;28;20634;-77
2022/11/13 14:54:32;;;;;;;8.70;7.80;;;;;;;14.66;51.15;98961.19;7004050;28;20370;-78
2022/11/13 14:57:55;;;;;;;9.17;8.13;;;;;;;14.54;51.36;98975.72;7004115;28;20338;-79
2022/11/13 15:01:23;;;;;;;10.37;8.40;;;;;;;14.50;50.68;98966.34;7004807;28;20254;-79
2022/11/13 15:04:45;;;;;;;10.03;9.03;;;;;;;13.71;52.37;98958.16;7001939;28;20289;-77
2022/11/13 15:08:07;;;;;;;10.43;9.40;;;;;;;13.96;52.34;98944.59;6992861;28;20676;-79
2022/11/13 15:11:29;;;;;;;10.57;9.13;;;;;;;14.13;51.94;98951.94;6995443;28;20210;-78
2022/11/13 15:14:51;;;;;;;12.97;11.53;;;;;;;13.66;52.87;98981.53;6975987;28;20226;-77
2022/11/13 15:18:16;;;;;;;12.93;11.57;;;;;;;13.51;53.37;98970.22;7001545;28;20272;-77
2022/11/13 15:21:38;;;;;;;17.43;14.00;;;;;;;12.52;56.01;98965.50;7004738;28;20257;-80
2022/11/13 15:24:59;;;;;;;16.90;14.40;;;;;;;12.47;56.04;98968.88;6997103;28;20990;-82
2022/11/13 15:28:21;;;;;;;20.03;15.03;;;;;;;12.53;56.54;98961.75;7005811;28;20248;-76
2022/11/13 15:31:45;;;;;;;19.20;14.63;;;;;;;12.01;57.82;98965.44;7005103;28;20232;-81
2022/11/13 15:35:12;;;;;;;19.03;15.47;;;;;;;12.35;57.39;98958.91;6997807;28;20320;-78
2022/11/13 15:38:33;;;;;;;18.60;15.80;;;;;;;12.51;56.45;98956.56;6996836;28;20296;-78
2022/11/13 15:41:55;;;;;;;16.73;14.93;;;;;;;12.39;56.74;98960.16;6990430;28;20257;-78
2022/11/13 15:45:17;;;;;;;16.83;14.43;;;;;;;12.36;56.39;98952.44;6992217;28;20922;-78
2022/11/13 15:48:40;;;;;;;15.63;12.93;;;;;;;12.52;55.56;98962.81;7005527;28;20722;-79
2022/11/13 15:52:01;;;;;;;16.97;14.47;;;;;;;11.79;57.76;98949.63;7004086;28;20198;-79
2022/11/13 15:55:28;;;;;;;20.87;13.97;;;;;;;11.85;57.54;98949.66;7004596;28;20246;-79
2022/11/13 15:58:49;;;;;;;16.57;13.87;;;;;;;11.94;57.22;98948.41;7005018;28;20654;-79